Elberon, Virginia
Current Conditions -  °F | °C
As of 1:54 PM on Tuesday 21 Oct 2014 (Local Time) from KAKQ Reporting Station
Clear Clear  
Wind Chill: 73°   Ceiling: Unl
Heat Index: 73°   Visibility: 10mi
Dew Point: 50°   Wind: 6mph
Humidity: 44%   Direction: 300°WNW
Pressure: 29.83"   Gusts: NA
Location:  37.06°N, 76.84°W
Report Text: KAKQ 211754Z AUTO 30005KT 10SM CLR 23/10 A2983 RMK AO2 SLP100 T02280100 10228 20133 58019 TSNO
Loading
Personal Weather Stations






























Interactive Weather Map
Tropical Storm Tracking
New forecast layout! Learn more

10-Day Weather Forecast

Advertisements
Track Severe Weather on mobile